Weather at Butaritari Airport

Public forecast

Using degrees Celsius for public forecast. Weather courtesy of forecast.io.

Closest aviation weather report (METAR) to Butaritari Airport

Closest report is Bonriki International Airport, 104.3 nm (193.1 km) S.

2024/05/25 01:00 (retrieved 48 minutes ago)

NGTA 250100Z 09008KT 9999 FEW020 31/26 Q1009

Closest aviation forecast (TAF) to Butaritari Airport

Forecast is more than 6 hours old.

Closest forecast is Haluoleo Airport, 3,054.0 nm (5,655.9 km) W.

2024/05/24 18:00 (retrieved 8 hours ago)

TAF WAWW 241700Z 2418/2506 00000KT 8000 SCT018 TEMPO 2418/2420 5000 RA FEW016CB BECMG 2420/2421 3000 BR